sensor_id;sensor_type;location;lat;lon;timestamp;P1;durP1;ratioP1;P2;durP2;ratioP2
80725;SDS011;70113;59.928;10.878;2023-12-28T00:00:16;10.52;;;4.95;;
80725;SDS011;70113;59.928;10.878;2023-12-28T00:03:01;7.72;;;4.40;;
80725;SDS011;70113;59.928;10.878;2023-12-28T00:05:27;7.82;;;3.90;;
80725;SDS011;70113;59.928;10.878;2023-12-28T00:07:52;9.95;;;4.15;;
80725;SDS011;70113;59.928;10.878;2023-12-28T00:10:23;10.27;;;4.63;;
80725;SDS011;70113;59.928;10.878;2023-12-28T00:12:49;9.07;;;4.28;;
80725;SDS011;70113;59.928;10.878;2023-12-28T00:15:15;9.52;;;4.63;;
80725;SDS011;70113;59.928;10.878;2023-12-28T00:17:40;8.27;;;3.88;;
80725;SDS011;70113;59.928;10.878;2023-12-28T00:20:06;9.48;;;4.72;;
80725;SDS011;70113;59.928;10.878;2023-12-28T00:22:31;11.30;;;4.80;;
80725;SDS011;70113;59.928;10.878;2023-12-28T00:24:57;8.55;;;4.00;;
80725;SDS011;70113;59.928;10.878;2023-12-28T00:27:23;10.13;;;4.10;;
80725;SDS011;70113;59.928;10.878;2023-12-28T00:29:48;7.22;;;3.97;;
80725;SDS011;70113;59.928;10.878;2023-12-28T00:32:14;10.00;;;5.35;;
80725;SDS011;70113;59.928;10.878;2023-12-28T00:34:40;7.38;;;3.78;;
80725;SDS011;70113;59.928;10.878;2023-12-28T00:37:05;9.65;;;4.70;;
80725;SDS011;70113;59.928;10.878;2023-12-28T00:39:31;6.75;;;3.15;;
80725;SDS011;70113;59.928;10.878;2023-12-28T00:41:56;8.55;;;3.90;;
80725;SDS011;70113;59.928;10.878;2023-12-28T00:44:22;7.25;;;3.83;;
80725;SDS011;70113;59.928;10.878;2023-12-28T00:46:47;8.43;;;3.67;;
80725;SDS011;70113;59.928;10.878;2023-12-28T00:49:13;7.60;;;3.08;;
80725;SDS011;70113;59.928;10.878;2023-12-28T00:51:38;7.03;;;3.47;;
80725;SDS011;70113;59.928;10.878;2023-12-28T00:54:04;11.20;;;3.65;;
80725;SDS011;70113;59.928;10.878;2023-12-28T00:56:30;6.65;;;2.58;;
80725;SDS011;70113;59.928;10.878;2023-12-28T00:58:55;8.35;;;2.90;;
80725;SDS011;70113;59.928;10.878;2023-12-28T01:01:21;6.78;;;3.30;;
80725;SDS011;70113;59.928;10.878;2023-12-28T01:03:46;7.32;;;3.05;;
80725;SDS011;70113;59.928;10.878;2023-12-28T01:06:12;6.63;;;3.20;;
80725;SDS011;70113;59.928;10.878;2023-12-28T01:08:38;9.13;;;3.45;;
80725;SDS011;70113;59.928;10.878;2023-12-28T01:11:03;10.88;;;3.75;;
80725;SDS011;70113;59.928;10.878;2023-12-28T01:13:29;7.10;;;3.50;;
80725;SDS011;70113;59.928;10.878;2023-12-28T01:15:56;9.32;;;3.90;;
80725;SDS011;70113;59.928;10.878;2023-12-28T01:18:21;8.07;;;3.08;;
80725;SDS011;70113;59.928;10.878;2023-12-28T01:20:47;7.38;;;3.67;;
80725;SDS011;70113;59.928;10.878;2023-12-28T01:23:13;7.82;;;3.63;;
80725;SDS011;70113;59.928;10.878;2023-12-28T01:25:38;8.90;;;3.65;;
80725;SDS011;70113;59.928;10.878;2023-12-28T01:28:04;8.70;;;3.83;;
80725;SDS011;70113;59.928;10.878;2023-12-28T01:30:29;9.88;;;4.00;;
80725;SDS011;70113;59.928;10.878;2023-12-28T01:32:55;10.18;;;4.03;;
80725;SDS011;70113;59.928;10.878;2023-12-28T01:35:21;8.30;;;3.50;;
80725;SDS011;70113;59.928;10.878;2023-12-28T01:37:46;6.13;;;3.03;;
80725;SDS011;70113;59.928;10.878;2023-12-28T01:40:12;6.65;;;3.20;;
80725;SDS011;70113;59.928;10.878;2023-12-28T01:42:38;9.23;;;3.70;;
80725;SDS011;70113;59.928;10.878;2023-12-28T01:45:04;6.85;;;3.92;;
80725;SDS011;70113;59.928;10.878;2023-12-28T01:47:30;7.38;;;3.78;;
80725;SDS011;70113;59.928;10.878;2023-12-28T01:49:55;8.85;;;4.03;;
80725;SDS011;70113;59.928;10.878;2023-12-28T01:52:22;10.55;;;4.57;;
80725;SDS011;70113;59.928;10.878;2023-12-28T01:54:47;10.27;;;4.38;;
80725;SDS011;70113;59.928;10.878;2023-12-28T01:57:14;7.03;;;3.38;;
80725;SDS011;70113;59.928;10.878;2023-12-28T01:59:41;10.18;;;4.28;;
80725;SDS011;70113;59.928;10.878;2023-12-28T02:02:07;12.02;;;4.15;;
80725;SDS011;70113;59.928;10.878;2023-12-28T02:04:32;8.65;;;4.18;;
80725;SDS011;70113;59.928;10.878;2023-12-28T02:06:58;11.10;;;4.07;;
80725;SDS011;70113;59.928;10.878;2023-12-28T02:09:24;11.00;;;4.03;;
80725;SDS011;70113;59.928;10.878;2023-12-28T02:11:50;8.50;;;3.35;;
80725;SDS011;70113;59.928;10.878;2023-12-28T02:14:16;8.00;;;3.60;;
80725;SDS011;70113;59.928;10.878;2023-12-28T02:16:46;11.30;;;4.47;;
80725;SDS011;70113;59.928;10.878;2023-12-28T02:19:18;7.18;;;3.33;;
80725;SDS011;70113;59.928;10.878;2023-12-28T02:21:46;8.68;;;3.35;;
80725;SDS011;70113;59.928;10.878;2023-12-28T02:24:12;7.15;;;2.97;;
80725;SDS011;70113;59.928;10.878;2023-12-28T02:26:38;8.30;;;3.13;;
80725;SDS011;70113;59.928;10.878;2023-12-28T02:29:03;7.65;;;2.97;;
80725;SDS011;70113;59.928;10.878;2023-12-28T02:31:33;7.65;;;2.97;;
80725;SDS011;70113;59.928;10.878;2023-12-28T02:34:04;9.77;;;2.67;;
80725;SDS011;70113;59.928;10.878;2023-12-28T02:36:31;7.28;;;2.72;;
80725;SDS011;70113;59.928;10.878;2023-12-28T02:38:58;6.97;;;2.72;;
80725;SDS011;70113;59.928;10.878;2023-12-28T02:41:25;9.13;;;2.88;;
80725;SDS011;70113;59.928;10.878;2023-12-28T02:43:51;10.23;;;3.05;;
80725;SDS011;70113;59.928;10.878;2023-12-28T02:46:16;9.65;;;2.97;;
80725;SDS011;70113;59.928;10.878;2023-12-28T02:48:42;7.70;;;2.63;;
80725;SDS011;70113;59.928;10.878;2023-12-28T02:51:07;7.78;;;2.70;;
80725;SDS011;70113;59.928;10.878;2023-12-28T02:53:33;8.52;;;2.70;;
80725;SDS011;70113;59.928;10.878;2023-12-28T02:55:59;7.07;;;2.50;;
80725;SDS011;70113;59.928;10.878;2023-12-28T02:58:24;6.40;;;2.25;;
80725;SDS011;70113;59.928;10.878;2023-12-28T03:00:50;5.07;;;2.28;;
80725;SDS011;70113;59.928;10.878;2023-12-28T03:03:15;5.65;;;2.53;;
80725;SDS011;70113;59.928;10.878;2023-12-28T03:05:41;7.50;;;2.65;;
80725;SDS011;70113;59.928;10.878;2023-12-28T03:08:06;6.43;;;2.60;;
80725;SDS011;70113;59.928;10.878;2023-12-28T03:10:32;7.03;;;2.17;;
80725;SDS011;70113;59.928;10.878;2023-12-28T03:12:58;5.32;;;2.35;;
80725;SDS011;70113;59.928;10.878;2023-12-28T03:15:24;5.63;;;2.28;;
80725;SDS011;70113;59.928;10.878;2023-12-28T03:17:49;5.70;;;2.40;;
80725;SDS011;70113;59.928;10.878;2023-12-28T03:20:15;6.88;;;2.42;;
80725;SDS011;70113;59.928;10.878;2023-12-28T03:22:40;5.28;;;2.00;;
80725;SDS011;70113;59.928;10.878;2023-12-28T03:25:06;5.30;;;1.73;;
80725;SDS011;70113;59.928;10.878;2023-12-28T03:27:32;6.45;;;2.25;;
80725;SDS011;70113;59.928;10.878;2023-12-28T03:29:57;4.90;;;1.80;;
80725;SDS011;70113;59.928;10.878;2023-12-28T03:32:23;7.05;;;1.60;;
80725;SDS011;70113;59.928;10.878;2023-12-28T03:34:49;6.38;;;1.75;;
80725;SDS011;70113;59.928;10.878;2023-12-28T03:37:14;5.55;;;1.65;;
80725;SDS011;70113;59.928;10.878;2023-12-28T03:39:40;4.78;;;1.65;;
80725;SDS011;70113;59.928;10.878;2023-12-28T03:42:06;8.95;;;2.20;;
80725;SDS011;70113;59.928;10.878;2023-12-28T03:44:31;6.10;;;2.58;;
80725;SDS011;70113;59.928;10.878;2023-12-28T03:46:57;6.70;;;2.08;;
80725;SDS011;70113;59.928;10.878;2023-12-28T03:49:22;5.03;;;1.75;;
80725;SDS011;70113;59.928;10.878;2023-12-28T03:51:49;6.50;;;2.38;;
80725;SDS011;70113;59.928;10.878;2023-12-28T03:54:16;5.93;;;1.65;;
80725;SDS011;70113;59.928;10.878;2023-12-28T03:56:41;8.55;;;1.90;;
80725;SDS011;70113;59.928;10.878;2023-12-28T03:59:08;5.07;;;1.35;;
80725;SDS011;70113;59.928;10.878;2023-12-28T04:01:34;5.50;;;1.70;;
80725;SDS011;70113;59.928;10.878;2023-12-28T04:04:00;4.32;;;1.95;;
80725;SDS011;70113;59.928;10.878;2023-12-28T04:06:25;5.57;;;1.52;;
80725;SDS011;70113;59.928;10.878;2023-12-28T04:08:51;6.53;;;1.40;;
80725;SDS011;70113;59.928;10.878;2023-12-28T04:11:16;4.93;;;1.77;;
80725;SDS011;70113;59.928;10.878;2023-12-28T04:13:42;5.32;;;1.75;;
80725;SDS011;70113;59.928;10.878;2023-12-28T04:16:07;5.22;;;1.80;;
80725;SDS011;70113;59.928;10.878;2023-12-28T04:18:35;4.53;;;1.35;;
80725;SDS011;70113;59.928;10.878;2023-12-28T04:21:00;3.10;;;1.30;;
80725;SDS011;70113;59.928;10.878;2023-12-28T04:23:26;3.78;;;1.20;;
80725;SDS011;70113;59.928;10.878;2023-12-28T04:25:51;5.70;;;1.58;;
80725;SDS011;70113;59.928;10.878;2023-12-28T04:28:17;5.75;;;1.40;;
80725;SDS011;70113;59.928;10.878;2023-12-28T04:30:43;4.22;;;1.25;;
80725;SDS011;70113;59.928;10.878;2023-12-28T04:33:08;6.00;;;1.45;;
80725;SDS011;70113;59.928;10.878;2023-12-28T04:35:34;5.28;;;1.38;;
80725;SDS011;70113;59.928;10.878;2023-12-28T04:37:59;5.53;;;1.30;;
80725;SDS011;70113;59.928;10.878;2023-12-28T04:40:25;4.88;;;1.30;;
80725;SDS011;70113;59.928;10.878;2023-12-28T04:42:51;4.93;;;1.40;;
80725;SDS011;70113;59.928;10.878;2023-12-28T04:45:16;4.63;;;1.48;;
80725;SDS011;70113;59.928;10.878;2023-12-28T04:47:42;5.05;;;1.80;;
80725;SDS011;70113;59.928;10.878;2023-12-28T04:50:07;4.22;;;1.50;;
80725;SDS011;70113;59.928;10.878;2023-12-28T04:52:33;4.80;;;1.33;;
80725;SDS011;70113;59.928;10.878;2023-12-28T04:54:58;4.32;;;1.30;;
80725;SDS011;70113;59.928;10.878;2023-12-28T04:57:24;3.08;;;0.98;;
80725;SDS011;70113;59.928;10.878;2023-12-28T04:59:53;6.00;;;1.20;;
80725;SDS011;70113;59.928;10.878;2023-12-28T05:02:19;4.43;;;1.27;;
80725;SDS011;70113;59.928;10.878;2023-12-28T05:04:44;4.63;;;1.08;;
80725;SDS011;70113;59.928;10.878;2023-12-28T05:07:10;3.83;;;1.42;;
80725;SDS011;70113;59.928;10.878;2023-12-28T05:09:35;3.33;;;1.00;;
80725;SDS011;70113;59.928;10.878;2023-12-28T05:12:01;4.40;;;1.38;;
80725;SDS011;70113;59.928;10.878;2023-12-28T05:14:27;3.90;;;1.30;;
80725;SDS011;70113;59.928;10.878;2023-12-28T05:16:53;6.78;;;1.15;;
80725;SDS011;70113;59.928;10.878;2023-12-28T05:19:18;4.20;;;1.33;;
80725;SDS011;70113;59.928;10.878;2023-12-28T05:21:44;5.05;;;1.20;;
80725;SDS011;70113;59.928;10.878;2023-12-28T05:24:10;7.32;;;1.85;;
80725;SDS011;70113;59.928;10.878;2023-12-28T05:26:35;4.80;;;1.33;;
80725;SDS011;70113;59.928;10.878;2023-12-28T05:29:01;7.50;;;1.40;;
80725;SDS011;70113;59.928;10.878;2023-12-28T05:31:27;3.75;;;1.83;;
80725;SDS011;70113;59.928;10.878;2023-12-28T05:33:52;4.95;;;1.83;;
80725;SDS011;70113;59.928;10.878;2023-12-28T05:36:18;3.17;;;1.13;;
80725;SDS011;70113;59.928;10.878;2023-12-28T05:38:43;4.50;;;1.20;;
80725;SDS011;70113;59.928;10.878;2023-12-28T05:41:09;2.63;;;1.00;;
80725;SDS011;70113;59.928;10.878;2023-12-28T05:43:36;4.75;;;1.00;;
80725;SDS011;70113;59.928;10.878;2023-12-28T05:46:01;4.13;;;1.00;;
80725;SDS011;70113;59.928;10.878;2023-12-28T05:48:27;4.63;;;1.13;;
80725;SDS011;70113;59.928;10.878;2023-12-28T05:50:52;3.83;;;1.20;;
80725;SDS011;70113;59.928;10.878;2023-12-28T05:53:18;7.30;;;1.55;;
80725;SDS011;70113;59.928;10.878;2023-12-28T05:55:44;4.28;;;0.98;;
80725;SDS011;70113;59.928;10.878;2023-12-28T05:58:09;5.47;;;1.00;;
80725;SDS011;70113;59.928;10.878;2023-12-28T06:00:35;4.70;;;1.10;;
80725;SDS011;70113;59.928;10.878;2023-12-28T06:03:04;2.78;;;0.90;;
80725;SDS011;70113;59.928;10.878;2023-12-28T06:05:30;6.28;;;1.10;;
80725;SDS011;70113;59.928;10.878;2023-12-28T06:07:55;3.17;;;0.98;;
80725;SDS011;70113;59.928;10.878;2023-12-28T06:10:21;3.00;;;0.90;;
80725;SDS011;70113;59.928;10.878;2023-12-28T06:12:46;4.82;;;1.05;;
80725;SDS011;70113;59.928;10.878;2023-12-28T06:15:12;6.35;;;1.30;;
80725;SDS011;70113;59.928;10.878;2023-12-28T06:17:37;3.40;;;0.95;;
80725;SDS011;70113;59.928;10.878;2023-12-28T06:20:03;2.08;;;0.70;;
80725;SDS011;70113;59.928;10.878;2023-12-28T06:22:29;3.10;;;0.90;;
80725;SDS011;70113;59.928;10.878;2023-12-28T06:24:55;4.10;;;0.80;;
80725;SDS011;70113;59.928;10.878;2023-12-28T06:27:21;2.92;;;0.98;;
80725;SDS011;70113;59.928;10.878;2023-12-28T06:29:46;3.97;;;1.20;;
80725;SDS011;70113;59.928;10.878;2023-12-28T06:32:12;5.25;;;1.08;;
80725;SDS011;70113;59.928;10.878;2023-12-28T06:34:38;4.63;;;1.23;;
80725;SDS011;70113;59.928;10.878;2023-12-28T06:37:04;3.00;;;0.93;;
80725;SDS011;70113;59.928;10.878;2023-12-28T06:39:30;4.75;;;1.13;;
80725;SDS011;70113;59.928;10.878;2023-12-28T06:41:55;3.85;;;1.15;;
80725;SDS011;70113;59.928;10.878;2023-12-28T06:44:21;3.08;;;0.77;;
80725;SDS011;70113;59.928;10.878;2023-12-28T06:46:46;2.88;;;1.00;;
80725;SDS011;70113;59.928;10.878;2023-12-28T06:49:12;4.07;;;1.10;;
80725;SDS011;70113;59.928;10.878;2023-12-28T06:51:37;2.80;;;1.20;;
80725;SDS011;70113;59.928;10.878;2023-12-28T06:54:03;3.30;;;1.20;;
80725;SDS011;70113;59.928;10.878;2023-12-28T06:56:28;3.28;;;1.17;;
80725;SDS011;70113;59.928;10.878;2023-12-28T06:58:54;3.95;;;1.33;;
80725;SDS011;70113;59.928;10.878;2023-12-28T07:01:20;4.30;;;1.15;;
80725;SDS011;70113;59.928;10.878;2023-12-28T07:03:45;2.97;;;0.95;;
80725;SDS011;70113;59.928;10.878;2023-12-28T07:06:11;4.15;;;0.93;;
80725;SDS011;70113;59.928;10.878;2023-12-28T07:08:38;3.92;;;1.05;;
80725;SDS011;70113;59.928;10.878;2023-12-28T07:11:04;4.40;;;1.08;;
80725;SDS011;70113;59.928;10.878;2023-12-28T07:13:29;3.97;;;1.40;;
80725;SDS011;70113;59.928;10.878;2023-12-28T07:15:55;3.50;;;1.05;;
80725;SDS011;70113;59.928;10.878;2023-12-28T07:18:21;3.13;;;0.95;;
80725;SDS011;70113;59.928;10.878;2023-12-28T07:20:46;4.32;;;1.08;;
80725;SDS011;70113;59.928;10.878;2023-12-28T07:23:12;4.45;;;1.15;;
80725;SDS011;70113;59.928;10.878;2023-12-28T07:25:38;4.22;;;0.88;;
80725;SDS011;70113;59.928;10.878;2023-12-28T07:28:04;2.95;;;1.10;;
80725;SDS011;70113;59.928;10.878;2023-12-28T07:30:30;3.38;;;1.15;;
80725;SDS011;70113;59.928;10.878;2023-12-28T07:32:55;3.53;;;1.05;;
80725;SDS011;70113;59.928;10.878;2023-12-28T07:35:21;4.57;;;1.25;;
80725;SDS011;70113;59.928;10.878;2023-12-28T07:37:47;3.25;;;1.20;;
80725;SDS011;70113;59.928;10.878;2023-12-28T07:40:12;2.22;;;0.90;;
80725;SDS011;70113;59.928;10.878;2023-12-28T07:42:38;4.30;;;1.10;;
80725;SDS011;70113;59.928;10.878;2023-12-28T07:45:04;3.53;;;1.08;;
80725;SDS011;70113;59.928;10.878;2023-12-28T07:47:30;2.70;;;1.30;;
80725;SDS011;70113;59.928;10.878;2023-12-28T07:49:55;5.22;;;1.38;;
80725;SDS011;70113;59.928;10.878;2023-12-28T07:52:21;3.33;;;1.17;;
80725;SDS011;70113;59.928;10.878;2023-12-28T07:54:46;3.67;;;0.95;;
80725;SDS011;70113;59.928;10.878;2023-12-28T07:57:12;2.90;;;0.90;;
80725;SDS011;70113;59.928;10.878;2023-12-28T07:59:38;3.17;;;0.90;;
80725;SDS011;70113;59.928;10.878;2023-12-28T08:02:03;4.03;;;1.27;;
80725;SDS011;70113;59.928;10.878;2023-12-28T08:04:29;3.00;;;0.80;;
80725;SDS011;70113;59.928;10.878;2023-12-28T08:06:55;4.57;;;1.20;;
80725;SDS011;70113;59.928;10.878;2023-12-28T08:09:20;4.15;;;1.10;;
80725;SDS011;70113;59.928;10.878;2023-12-28T08:11:46;3.85;;;1.00;;
80725;SDS011;70113;59.928;10.878;2023-12-28T08:14:12;2.67;;;0.90;;
80725;SDS011;70113;59.928;10.878;2023-12-28T08:16:37;6.20;;;1.05;;
80725;SDS011;70113;59.928;10.878;2023-12-28T08:19:03;2.10;;;0.70;;
80725;SDS011;70113;59.928;10.878;2023-12-28T08:21:29;2.42;;;0.85;;
80725;SDS011;70113;59.928;10.878;2023-12-28T08:23:54;3.75;;;1.30;;
80725;SDS011;70113;59.928;10.878;2023-12-28T08:26:20;4.88;;;1.20;;
80725;SDS011;70113;59.928;10.878;2023-12-28T08:28:45;6.88;;;1.70;;
80725;SDS011;70113;59.928;10.878;2023-12-28T08:31:12;5.40;;;1.17;;
80725;SDS011;70113;59.928;10.878;2023-12-28T08:33:38;4.20;;;1.40;;
80725;SDS011;70113;59.928;10.878;2023-12-28T08:36:07;4.32;;;1.15;;
80725;SDS011;70113;59.928;10.878;2023-12-28T08:38:32;4.55;;;1.73;;
80725;SDS011;70113;59.928;10.878;2023-12-28T08:40:58;3.30;;;1.08;;
80725;SDS011;70113;59.928;10.878;2023-12-28T08:43:23;3.25;;;1.20;;
80725;SDS011;70113;59.928;10.878;2023-12-28T08:45:49;5.60;;;1.33;;
80725;SDS011;70113;59.928;10.878;2023-12-28T08:48:14;7.22;;;1.63;;
80725;SDS011;70113;59.928;10.878;2023-12-28T08:50:40;3.90;;;1.15;;
80725;SDS011;70113;59.928;10.878;2023-12-28T08:53:06;3.25;;;1.10;;
80725;SDS011;70113;59.928;10.878;2023-12-28T08:55:32;4.07;;;0.98;;
80725;SDS011;70113;59.928;10.878;2023-12-28T08:57:58;4.10;;;1.55;;
80725;SDS011;70113;59.928;10.878;2023-12-28T09:00:24;3.15;;;0.88;;
80725;SDS011;70113;59.928;10.878;2023-12-28T09:02:50;5.30;;;0.93;;
80725;SDS011;70113;59.928;10.878;2023-12-28T09:05:17;2.83;;;1.00;;
80725;SDS011;70113;59.928;10.878;2023-12-28T09:07:42;3.13;;;0.93;;
80725;SDS011;70113;59.928;10.878;2023-12-28T09:10:09;3.10;;;1.08;;
80725;SDS011;70113;59.928;10.878;2023-12-28T09:12:35;1.58;;;0.63;;
80725;SDS011;70113;59.928;10.878;2023-12-28T09:15:01;2.13;;;0.90;;
80725;SDS011;70113;59.928;10.878;2023-12-28T09:17:26;2.35;;;0.60;;
80725;SDS011;70113;59.928;10.878;2023-12-28T09:19:52;3.05;;;0.73;;
80725;SDS011;70113;59.928;10.878;2023-12-28T09:22:17;2.33;;;1.00;;
80725;SDS011;70113;59.928;10.878;2023-12-28T09:24:43;4.57;;;1.20;;
80725;SDS011;70113;59.928;10.878;2023-12-28T09:27:09;2.85;;;0.80;;
80725;SDS011;70113;59.928;10.878;2023-12-28T09:29:34;2.30;;;0.80;;
80725;SDS011;70113;59.928;10.878;2023-12-28T09:32:00;2.40;;;1.05;;
80725;SDS011;70113;59.928;10.878;2023-12-28T09:34:26;2.47;;;0.90;;
80725;SDS011;70113;59.928;10.878;2023-12-28T09:36:51;3.25;;;0.90;;
80725;SDS011;70113;59.928;10.878;2023-12-28T09:39:17;4.07;;;0.80;;
80725;SDS011;70113;59.928;10.878;2023-12-28T09:41:43;2.15;;;0.70;;
80725;SDS011;70113;59.928;10.878;2023-12-28T09:44:13;2.83;;;1.10;;
80725;SDS011;70113;59.928;10.878;2023-12-28T09:46:42;3.80;;;0.70;;
80725;SDS011;70113;59.928;10.878;2023-12-28T09:49:10;2.63;;;0.80;;
80725;SDS011;70113;59.928;10.878;2023-12-28T09:51:35;2.97;;;0.90;;
80725;SDS011;70113;59.928;10.878;2023-12-28T09:54:03;4.07;;;1.00;;
80725;SDS011;70113;59.928;10.878;2023-12-28T09:56:29;5.20;;;1.38;;
80725;SDS011;70113;59.928;10.878;2023-12-28T09:58:54;3.10;;;1.38;;
80725;SDS011;70113;59.928;10.878;2023-12-28T10:01:20;2.00;;;0.63;;
80725;SDS011;70113;59.928;10.878;2023-12-28T10:03:46;2.08;;;0.77;;
80725;SDS011;70113;59.928;10.878;2023-12-28T10:06:11;2.33;;;0.90;;
80725;SDS011;70113;59.928;10.878;2023-12-28T10:08:47;2.53;;;1.00;;
80725;SDS011;70113;59.928;10.878;2023-12-28T10:11:14;3.47;;;0.90;;
80725;SDS011;70113;59.928;10.878;2023-12-28T10:13:41;4.28;;;0.80;;
80725;SDS011;70113;59.928;10.878;2023-12-28T10:16:08;3.92;;;1.15;;
80725;SDS011;70113;59.928;10.878;2023-12-28T10:18:34;3.60;;;0.80;;
80725;SDS011;70113;59.928;10.878;2023-12-28T10:21:00;3.10;;;1.00;;
80725;SDS011;70113;59.928;10.878;2023-12-28T10:23:26;2.30;;;0.82;;
80725;SDS011;70113;59.928;10.878;2023-12-28T10:25:51;1.63;;;0.70;;
80725;SDS011;70113;59.928;10.878;2023-12-28T10:28:20;2.85;;;1.23;;
80725;SDS011;70113;59.928;10.878;2023-12-28T10:30:45;2.75;;;1.00;;
80725;SDS011;70113;59.928;10.878;2023-12-28T10:33:11;3.20;;;0.93;;
80725;SDS011;70113;59.928;10.878;2023-12-28T10:35:38;2.03;;;0.70;;
80725;SDS011;70113;59.928;10.878;2023-12-28T10:38:04;3.53;;;0.73;;
80725;SDS011;70113;59.928;10.878;2023-12-28T10:40:29;3.47;;;1.10;;
80725;SDS011;70113;59.928;10.878;2023-12-28T10:42:58;2.38;;;0.75;;
80725;SDS011;70113;59.928;10.878;2023-12-28T10:45:28;3.42;;;0.80;;
80725;SDS011;70113;59.928;10.878;2023-12-28T10:50:26;1.73;;;0.70;;
80725;SDS011;70113;59.928;10.878;2023-12-28T10:52:53;2.40;;;0.75;;
80725;SDS011;70113;59.928;10.878;2023-12-28T11:00:20;1.30;;;0.50;;
80725;SDS011;70113;59.928;10.878;2023-12-28T11:02:49;3.25;;;0.70;;
80725;SDS011;70113;59.928;10.878;2023-12-28T11:05:17;1.95;;;0.68;;
80725;SDS011;70113;59.928;10.878;2023-12-28T11:07:44;2.15;;;0.75;;
80725;SDS011;70113;59.928;10.878;2023-12-28T11:10:10;2.75;;;0.98;;
80725;SDS011;70113;59.928;10.878;2023-12-28T11:12:37;2.75;;;0.77;;
80725;SDS011;70113;59.928;10.878;2023-12-28T11:15:02;1.98;;;0.73;;
80725;SDS011;70113;59.928;10.878;2023-12-28T11:17:30;3.30;;;0.80;;
80725;SDS011;70113;59.928;10.878;2023-12-28T11:19:56;2.70;;;0.80;;
80725;SDS011;70113;59.928;10.878;2023-12-28T11:22:22;2.78;;;1.00;;
80725;SDS011;70113;59.928;10.878;2023-12-28T11:24:47;3.90;;;0.70;;
80725;SDS011;70113;59.928;10.878;2023-12-28T11:27:13;4.93;;;1.38;;
80725;SDS011;70113;59.928;10.878;2023-12-28T11:29:40;4.05;;;1.25;;
80725;SDS011;70113;59.928;10.878;2023-12-28T11:32:07;4.18;;;1.00;;
80725;SDS011;70113;59.928;10.878;2023-12-28T11:34:33;4.13;;;0.90;;
80725;SDS011;70113;59.928;10.878;2023-12-28T11:37:00;5.18;;;0.95;;
80725;SDS011;70113;59.928;10.878;2023-12-28T11:39:30;2.53;;;0.80;;
80725;SDS011;70113;59.928;10.878;2023-12-28T11:42:08;3.55;;;0.73;;
80725;SDS011;70113;59.928;10.878;2023-12-28T11:44:41;3.28;;;0.95;;
80725;SDS011;70113;59.928;10.878;2023-12-28T11:47:17;4.18;;;1.00;;
80725;SDS011;70113;59.928;10.878;2023-12-28T11:49:45;2.20;;;0.93;;
80725;SDS011;70113;59.928;10.878;2023-12-28T11:52:26;2.08;;;0.90;;
80725;SDS011;70113;59.928;10.878;2023-12-28T13:20:46;4.78;;;1.25;;
80725;SDS011;70113;59.928;10.878;2023-12-28T13:23:11;2.22;;;0.70;;
80725;SDS011;70113;59.928;10.878;2023-12-28T13:25:37;3.03;;;0.85;;
80725;SDS011;70113;59.928;10.878;2023-12-28T13:28:03;2.25;;;0.70;;
80725;SDS011;70113;59.928;10.878;2023-12-28T13:30:29;1.80;;;0.65;;
80725;SDS011;70113;59.928;10.878;2023-12-28T13:32:54;3.10;;;1.00;;
80725;SDS011;70113;59.928;10.878;2023-12-28T13:35:23;2.47;;;1.00;;
80725;SDS011;70113;59.928;10.878;2023-12-28T13:37:49;3.78;;;0.90;;
80725;SDS011;70113;59.928;10.878;2023-12-28T13:40:14;5.18;;;0.95;;
80725;SDS011;70113;59.928;10.878;2023-12-28T13:42:40;5.00;;;1.02;;
80725;SDS011;70113;59.928;10.878;2023-12-28T13:45:06;4.38;;;1.30;;
80725;SDS011;70113;59.928;10.878;2023-12-28T13:47:32;2.70;;;0.82;;
80725;SDS011;70113;59.928;10.878;2023-12-28T13:49:57;2.53;;;0.70;;
80725;SDS011;70113;59.928;10.878;2023-12-28T13:52:23;2.25;;;0.82;;
80725;SDS011;70113;59.928;10.878;2023-12-28T13:54:49;3.40;;;1.00;;
80725;SDS011;70113;59.928;10.878;2023-12-28T13:57:14;4.82;;;1.30;;
80725;SDS011;70113;59.928;10.878;2023-12-28T13:59:40;4.63;;;1.60;;
80725;SDS011;70113;59.928;10.878;2023-12-28T14:02:06;6.18;;;1.50;;
80725;SDS011;70113;59.928;10.878;2023-12-28T14:04:31;3.80;;;1.05;;
80725;SDS011;70113;59.928;10.878;2023-12-28T14:06:57;6.47;;;1.25;;
80725;SDS011;70113;59.928;10.878;2023-12-28T14:09:22;5.97;;;1.20;;
80725;SDS011;70113;59.928;10.878;2023-12-28T14:11:48;4.82;;;1.48;;
80725;SDS011;70113;59.928;10.878;2023-12-28T14:14:14;2.75;;;0.90;;
80725;SDS011;70113;59.928;10.878;2023-12-28T14:16:40;4.47;;;1.33;;
80725;SDS011;70113;59.928;10.878;2023-12-28T14:19:05;5.28;;;1.42;;
80725;SDS011;70113;59.928;10.878;2023-12-28T14:21:35;5.55;;;1.80;;
80725;SDS011;70113;59.928;10.878;2023-12-28T14:24:01;5.32;;;2.15;;
80725;SDS011;70113;59.928;10.878;2023-12-28T14:26:26;5.25;;;2.28;;
80725;SDS011;70113;59.928;10.878;2023-12-28T14:28:52;5.60;;;2.20;;
80725;SDS011;70113;59.928;10.878;2023-12-28T14:31:18;4.82;;;2.28;;
80725;SDS011;70113;59.928;10.878;2023-12-28T14:33:44;8.18;;;4.13;;
80725;SDS011;70113;59.928;10.878;2023-12-28T14:36:18;8.43;;;4.57;;
80725;SDS011;70113;59.928;10.878;2023-12-28T14:38:45;6.95;;;3.50;;
80725;SDS011;70113;59.928;10.878;2023-12-28T14:41:11;8.07;;;3.50;;
80725;SDS011;70113;59.928;10.878;2023-12-28T14:43:37;8.93;;;2.78;;
80725;SDS011;70113;59.928;10.878;2023-12-28T14:46:02;4.78;;;1.58;;
80725;SDS011;70113;59.928;10.878;2023-12-28T14:48:30;5.00;;;1.65;;
80725;SDS011;70113;59.928;10.878;2023-12-28T14:50:56;3.45;;;1.20;;
80725;SDS011;70113;59.928;10.878;2023-12-28T14:53:22;4.45;;;1.33;;
80725;SDS011;70113;59.928;10.878;2023-12-28T14:55:50;4.18;;;1.55;;
80725;SDS011;70113;59.928;10.878;2023-12-28T14:58:16;9.85;;;5.65;;
80725;SDS011;70113;59.928;10.878;2023-12-28T15:00:44;10.40;;;5.88;;
80725;SDS011;70113;59.928;10.878;2023-12-28T15:03:11;7.32;;;4.35;;
80725;SDS011;70113;59.928;10.878;2023-12-28T15:05:36;6.97;;;1.90;;
80725;SDS011;70113;59.928;10.878;2023-12-28T15:08:02;5.03;;;1.80;;
80725;SDS011;70113;59.928;10.878;2023-12-28T15:10:27;5.85;;;1.67;;
80725;SDS011;70113;59.928;10.878;2023-12-28T15:12:53;4.32;;;1.35;;
80725;SDS011;70113;59.928;10.878;2023-12-28T15:15:19;5.15;;;1.48;;
80725;SDS011;70113;59.928;10.878;2023-12-28T15:17:45;2.83;;;1.25;;
80725;SDS011;70113;59.928;10.878;2023-12-28T15:20:11;3.40;;;1.30;;
80725;SDS011;70113;59.928;10.878;2023-12-28T15:22:37;6.80;;;3.63;;
80725;SDS011;70113;59.928;10.878;2023-12-28T15:25:03;13.32;;;8.38;;
80725;SDS011;70113;59.928;10.878;2023-12-28T15:27:29;9.45;;;6.00;;
80725;SDS011;70113;59.928;10.878;2023-12-28T15:29:55;10.60;;;5.05;;
80725;SDS011;70113;59.928;10.878;2023-12-28T15:32:22;5.07;;;2.60;;
80725;SDS011;70113;59.928;10.878;2023-12-28T15:34:47;6.05;;;2.60;;
80725;SDS011;70113;59.928;10.878;2023-12-28T15:37:13;5.05;;;2.45;;
80725;SDS011;70113;59.928;10.878;2023-12-28T15:39:38;6.68;;;3.15;;
80725;SDS011;70113;59.928;10.878;2023-12-28T15:42:04;7.05;;;4.13;;
80725;SDS011;70113;59.928;10.878;2023-12-28T15:44:29;7.60;;;4.50;;
80725;SDS011;70113;59.928;10.878;2023-12-28T15:46:56;6.90;;;4.38;;
80725;SDS011;70113;59.928;10.878;2023-12-28T15:49:22;6.15;;;3.47;;
80725;SDS011;70113;59.928;10.878;2023-12-28T15:51:47;5.43;;;3.63;;
80725;SDS011;70113;59.928;10.878;2023-12-28T15:54:13;5.95;;;3.47;;
80725;SDS011;70113;59.928;10.878;2023-12-28T15:56:39;6.75;;;3.20;;
80725;SDS011;70113;59.928;10.878;2023-12-28T15:59:04;7.35;;;3.92;;